createdAt,value
2023-02-20T00:01:20.691Z,10.00
2023-02-20T00:04:28.572Z,8.80
2023-02-20T00:07:34.987Z,11.50
2023-02-20T00:10:35.285Z,10.20
2023-02-20T00:13:54.734Z,9.60
2023-02-20T00:16:42.486Z,7.90
2023-02-20T00:19:25.800Z,8.80
2023-02-20T00:22:03.922Z,8.10
2023-02-20T00:25:13.861Z,8.80
2023-02-20T00:28:38.213Z,7.70
2023-02-20T00:31:40.122Z,7.80
2023-02-20T00:34:47.445Z,7.30
2023-02-20T00:37:36.833Z,9.00
2023-02-20T00:40:42.492Z,8.20
2023-02-20T00:43:22.907Z,8.20
2023-02-20T00:46:04.854Z,8.20
2023-02-20T00:48:56.462Z,7.10
2023-02-20T00:52:03.309Z,7.30
2023-02-20T00:55:26.778Z,8.10
2023-02-20T00:58:25.556Z,6.40
2023-02-20T01:02:22.053Z,7.40
2023-02-20T01:04:35.376Z,8.10
2023-02-20T01:07:21.544Z,6.60
2023-02-20T01:10:14.442Z,7.30
2023-02-20T01:12:47.443Z,7.10
2023-02-20T01:15:28.491Z,7.00
2023-02-20T01:18:02.388Z,7.40
2023-02-20T01:20:37.304Z,7.30
2023-02-20T01:23:10.663Z,7.70
2023-02-20T01:25:59.660Z,8.10
2023-02-20T01:28:40.063Z,6.60
2023-02-20T01:31:23.897Z,7.10
2023-02-20T01:34:07.985Z,5.90
2023-02-20T01:37:00.135Z,6.20
2023-02-20T01:39:49.718Z,5.70
2023-02-20T01:42:44.653Z,5.80
2023-02-20T01:45:39.378Z,5.70
2023-02-20T01:48:40.315Z,6.20
2023-02-20T01:52:06.595Z,6.30
2023-02-20T01:55:04.885Z,6.80
2023-02-20T01:59:05.092Z,6.40
2023-02-20T02:02:00.824Z,7.20
2023-02-20T02:04:45.780Z,6.20
2023-02-20T02:07:29.386Z,6.90
2023-02-20T02:10:15.362Z,7.50
2023-02-20T02:13:22.714Z,7.20
2023-02-20T02:16:55.192Z,7.30
2023-02-20T02:20:13.117Z,7.30
2023-02-20T02:23:32.480Z,8.10
2023-02-20T02:27:29.013Z,6.10
2023-02-20T02:31:31.366Z,6.00
2023-02-20T02:34:56.698Z,6.40
2023-02-20T02:41:42.921Z,6.10
2023-02-20T02:53:40.217Z,4.10
2023-02-20T02:56:25.257Z,5.10
2023-02-20T02:59:52.477Z,5.90
2023-02-20T03:03:30.727Z,5.80
2023-02-20T03:06:15.211Z,4.80
2023-02-20T03:09:08.372Z,5.90
2023-02-20T03:11:54.188Z,5.70
2023-02-20T03:18:58.768Z,5.60
2023-02-20T03:21:44.564Z,5.60
2023-02-20T03:24:29.596Z,5.90
2023-02-20T03:27:12.041Z,5.70
2023-02-20T03:29:48.452Z,6.40
2023-02-20T03:32:48.900Z,7.30
2023-02-20T03:35:48.904Z,5.00
2023-02-20T03:38:41.597Z,5.30
2023-02-20T03:41:34.638Z,5.70
2023-02-20T03:44:08.299Z,5.30
2023-02-20T03:46:45.355Z,5.50
2023-02-20T03:49:55.584Z,5.50
2023-02-20T03:52:40.935Z,5.40
2023-02-20T03:58:24.497Z,5.10
2023-02-20T04:01:27.995Z,5.00
2023-02-20T04:04:09.166Z,4.90
2023-02-20T04:06:51.731Z,4.90
2023-02-20T04:10:00.967Z,5.50
2023-02-20T04:13:02.721Z,5.10
2023-02-20T04:15:48.519Z,5.40
2023-02-20T04:18:32.285Z,5.20
2023-02-20T04:21:43.091Z,6.50
2023-02-20T04:24:29.629Z,10.10
2023-02-20T04:27:36.362Z,27.10
2023-02-20T04:30:13.040Z,33.10
2023-02-20T04:32:51.600Z,9.40
2023-02-20T04:35:29.725Z,16.20
2023-02-20T04:38:20.760Z,30.60
2023-02-20T04:41:08.875Z,14.00
2023-02-20T04:44:31.797Z,7.50
2023-02-20T04:47:24.904Z,7.10
2023-02-20T04:50:16.004Z,7.20
2023-02-20T04:52:58.160Z,7.20
2023-02-20T04:55:41.472Z,7.60
2023-02-20T04:58:27.152Z,8.40
2023-02-20T05:01:37.406Z,20.50
2023-02-20T05:07:43.111Z,6.20
2023-02-20T05:10:40.650Z,7.60
2023-02-20T05:13:18.787Z,8.00
2023-02-20T05:16:00.954Z,5.70
2023-02-20T05:19:22.672Z,6.10
2023-02-20T05:22:21.078Z,32.70
2023-02-20T05:24:55.101Z,29.40
2023-02-20T05:27:44.225Z,9.30
2023-02-20T05:33:31.370Z,7.80
2023-02-20T05:36:08.610Z,7.60
2023-02-20T05:38:44.594Z,7.40
2023-02-20T05:41:21.267Z,8.20
2023-02-20T05:43:57.363Z,8.20
2023-02-20T05:46:32.315Z,8.20
2023-02-20T05:49:09.588Z,9.40
2023-02-20T05:51:46.707Z,10.30
2023-02-20T05:54:21.663Z,8.60
2023-02-20T05:57:02.361Z,7.30
2023-02-20T05:59:51.991Z,8.10
2023-02-20T06:02:31.990Z,8.00
2023-02-20T06:05:14.304Z,7.80
2023-02-20T06:08:06.133Z,8.30
2023-02-20T06:10:41.868Z,8.00
2023-02-20T06:13:25.978Z,9.30
2023-02-20T06:16:10.569Z,8.00
2023-02-20T06:18:50.357Z,7.70
2023-02-20T06:22:05.888Z,7.40
2023-02-20T06:24:59.278Z,7.00
2023-02-20T06:28:01.062Z,8.00
2023-02-20T06:30:54.748Z,8.20
2023-02-20T06:33:55.162Z,8.80
2023-02-20T06:36:48.892Z,8.00
2023-02-20T06:39:59.097Z,8.60
2023-02-20T06:43:02.170Z,9.80
2023-02-20T06:48:36.248Z,9.90
2023-02-20T06:51:40.016Z,10.00
2023-02-20T06:54:33.636Z,12.70
2023-02-20T06:57:12.676Z,11.10
2023-02-20T07:00:09.999Z,11.70
2023-02-20T07:03:05.243Z,12.70
2023-02-20T07:05:53.626Z,11.80
2023-02-20T07:08:34.206Z,15.20
2023-02-20T07:11:21.801Z,16.30
2023-02-20T07:14:03.317Z,9.90
2023-02-20T07:16:44.378Z,9.20
2023-02-20T07:19:48.428Z,9.40
2023-02-20T07:22:45.779Z,9.90
2023-02-20T07:25:35.971Z,8.70
2023-02-20T07:28:46.283Z,9.70
2023-02-20T07:31:34.016Z,10.00
2023-02-20T07:34:33.004Z,9.50
2023-02-20T07:37:13.882Z,12.50
2023-02-20T07:40:09.279Z,11.90
2023-02-20T07:42:47.732Z,11.60
2023-02-20T07:45:33.086Z,9.70
2023-02-20T07:48:08.378Z,11.10
2023-02-20T07:50:55.683Z,11.20
2023-02-20T07:53:51.050Z,10.70
2023-02-20T07:56:37.888Z,10.10
2023-02-20T07:59:15.756Z,9.50
2023-02-20T08:01:47.626Z,9.60
2023-02-20T08:04:50.488Z,13.20
2023-02-20T08:07:19.611Z,11.90
2023-02-20T08:09:50.846Z,11.10
2023-02-20T08:12:33.404Z,14.20
2023-02-20T08:15:12.254Z,12.10
2023-02-20T08:17:58.942Z,14.50
2023-02-20T08:20:52.064Z,12.70
2023-02-20T08:23:48.641Z,11.00
2023-02-20T08:29:34.534Z,10.40
2023-02-20T08:32:38.037Z,10.90
2023-02-20T08:35:27.027Z,11.10
2023-02-20T08:38:39.188Z,10.80
2023-02-20T08:41:19.454Z,10.30
2023-02-20T08:44:19.107Z,10.00
2023-02-20T08:46:53.055Z,11.00
2023-02-20T08:49:38.493Z,10.40
2023-02-20T08:52:23.163Z,21.70
2023-02-20T08:55:27.655Z,15.50
2023-02-20T08:58:31.076Z,11.90
2023-02-20T09:01:13.550Z,12.90
2023-02-20T09:03:55.358Z,13.40
2023-02-20T09:06:57.509Z,12.90
2023-02-20T09:09:57.825Z,12.20
2023-02-20T09:12:41.742Z,12.00
2023-02-20T09:15:40.520Z,12.30
2023-02-20T09:18:46.372Z,12.30
2023-02-20T09:21:27.720Z,12.20
2023-02-20T09:24:04.219Z,13.50
2023-02-20T09:26:38.138Z,14.60
2023-02-20T09:29:28.142Z,12.20
2023-02-20T09:32:19.295Z,13.20
2023-02-20T09:35:22.443Z,11.80
2023-02-20T09:38:09.556Z,12.50
2023-02-20T09:40:39.332Z,11.90
2023-02-20T09:43:47.754Z,11.10
2023-02-20T09:46:33.748Z,13.70
2023-02-20T09:49:27.522Z,14.70
2023-02-20T09:52:16.231Z,14.80
2023-02-20T09:55:03.008Z,13.00
2023-02-20T09:57:49.608Z,13.50
2023-02-20T10:00:55.097Z,14.80
2023-02-20T10:04:03.769Z,12.80
2023-02-20T10:06:37.042Z,15.50
2023-02-20T10:09:12.908Z,14.80
2023-02-20T10:12:14.960Z,11.10
2023-02-20T10:15:20.930Z,15.30
2023-02-20T10:18:00.408Z,12.30
2023-02-20T10:20:48.291Z,12.40
2023-02-20T10:23:59.939Z,13.20
2023-02-20T10:26:47.756Z,14.90
2023-02-20T10:29:29.950Z,14.50
2023-02-20T10:32:22.248Z,11.50
2023-02-20T10:35:04.256Z,15.70
2023-02-20T10:37:50.294Z,12.60
2023-02-20T10:40:39.522Z,12.60
2023-02-20T10:43:27.847Z,13.50
2023-02-20T10:46:27.863Z,13.20
2023-02-20T10:49:44.097Z,11.20
2023-02-20T10:52:34.250Z,16.30
2023-02-20T10:55:29.066Z,12.20
2023-02-20T10:58:10.787Z,12.20
2023-02-20T11:00:51.665Z,10.20
2023-02-20T11:04:01.041Z,10.40
2023-02-20T11:06:43.374Z,10.90
2023-02-20T11:09:13.911Z,10.60
2023-02-20T11:11:46.758Z,12.80
2023-02-20T11:14:40.943Z,14.00
2023-02-20T11:17:26.534Z,11.10
2023-02-20T11:20:33.798Z,12.70
2023-02-20T11:23:07.477Z,10.80
2023-02-20T11:25:43.312Z,17.50
2023-02-20T11:28:39.044Z,12.80
2023-02-20T11:31:13.164Z,16.20
2023-02-20T11:33:50.994Z,13.00
2023-02-20T11:36:56.411Z,10.80
2023-02-20T11:39:36.967Z,8.70
2023-02-20T11:42:21.161Z,9.80
2023-02-20T11:45:29.154Z,10.10
2023-02-20T11:48:16.995Z,10.00
2023-02-20T11:51:05.048Z,11.70
2023-02-20T11:53:41.318Z,10.80
2023-02-20T11:56:38.858Z,10.80
2023-02-20T12:00:02.536Z,9.60
2023-02-20T12:03:09.992Z,11.30
2023-02-20T12:06:10.753Z,10.70
2023-02-20T12:09:02.057Z,10.50
2023-02-20T12:12:05.129Z,8.80
2023-02-20T12:15:01.016Z,8.80
2023-02-20T12:18:00.217Z,8.00
2023-02-20T12:20:59.528Z,8.30
2023-02-20T12:24:08.320Z,9.00
2023-02-20T12:27:37.696Z,8.20
2023-02-20T12:31:06.421Z,8.10
2023-02-20T12:34:57.849Z,7.50
2023-02-20T12:40:02.507Z,10.20
2023-02-20T12:43:29.647Z,8.60
2023-02-20T12:51:28.066Z,10.90
2023-02-20T12:55:38.367Z,9.80
2023-02-20T12:59:16.359Z,8.90
2023-02-20T13:02:42.679Z,8.00
2023-02-20T13:06:23.041Z,7.50
2023-02-20T13:11:08.579Z,8.80
2023-02-20T13:47:05.144Z,5.50
2023-02-20T13:50:19.336Z,5.90
2023-02-20T13:53:43.666Z,6.70
2023-02-20T13:56:55.782Z,6.90
2023-02-20T13:59:44.370Z,6.50
2023-02-20T14:02:56.084Z,6.00
2023-02-20T14:06:25.735Z,5.60
2023-02-20T14:10:14.475Z,6.60
2023-02-20T14:13:39.070Z,4.80
2023-02-20T14:16:52.524Z,5.30
2023-02-20T14:19:46.870Z,4.60
2023-02-20T14:22:42.811Z,5.20
2023-02-20T14:28:43.913Z,5.00
2023-02-20T14:32:27.811Z,5.80
2023-02-20T14:36:07.472Z,11.60
2023-02-20T14:39:41.732Z,4.80
2023-02-20T14:43:56.789Z,5.00
2023-02-20T14:48:33.579Z,5.10
2023-02-20T14:51:40.138Z,5.60
2023-02-20T14:55:18.461Z,4.70
2023-02-20T15:40:51.293Z,7.50
2023-02-20T16:27:03.260Z,5.30
2023-02-20T16:31:29.990Z,5.60
2023-02-20T16:37:45.846Z,6.30
2023-02-20T16:41:25.227Z,5.30
2023-02-20T16:48:32.113Z,4.80
2023-02-20T16:59:36.441Z,6.30
2023-02-20T17:02:47.266Z,5.30
2023-02-20T17:06:19.495Z,5.10
2023-02-20T17:10:10.782Z,5.20
2023-02-20T17:35:33.767Z,9.50
2023-02-20T17:38:37.125Z,5.50
2023-02-20T17:41:10.156Z,5.50
2023-02-20T17:44:02.788Z,6.20
2023-02-20T17:46:45.228Z,5.00
2023-02-20T17:50:06.395Z,5.50
2023-02-20T17:57:58.162Z,5.50
2023-02-20T17:59:41.142Z,4.90
2023-02-20T18:02:52.649Z,5.20
2023-02-20T18:06:38.677Z,5.30
2023-02-20T18:09:57.076Z,5.20
2023-02-20T18:13:18.586Z,4.80
2023-02-20T18:16:44.598Z,4.70
2023-02-20T18:19:37.557Z,5.40
2023-02-20T18:25:40.904Z,5.80
2023-02-20T18:28:30.220Z,5.80
2023-02-20T18:31:44.507Z,6.50
2023-02-20T18:34:34.700Z,6.70
2023-02-20T18:37:18.270Z,5.90
2023-02-20T18:40:10.309Z,5.40
2023-02-20T18:43:44.932Z,6.10
2023-02-20T18:47:23.459Z,6.30
2023-02-20T18:56:01.564Z,8.10
2023-02-20T18:59:16.962Z,7.20
2023-02-20T19:03:12.222Z,6.50
2023-02-20T19:46:45.033Z,7.80
2023-02-20T19:54:21.856Z,7.70
2023-02-20T19:58:02.757Z,9.30
2023-02-20T20:01:39.979Z,7.80
2023-02-20T20:09:35.780Z,8.70
2023-02-20T20:13:29.549Z,10.30
2023-02-20T20:51:28.822Z,10.30
2023-02-20T20:59:21.689Z,11.90
2023-02-20T21:41:05.600Z,9.50
2023-02-20T21:45:17.231Z,9.50
2023-02-20T21:53:24.919Z,10.10
2023-02-20T21:56:55.000Z,8.90
2023-02-20T22:00:25.800Z,10.90
2023-02-20T22:21:50.427Z,8.00
2023-02-20T22:29:12.944Z,7.90
2023-02-20T22:33:01.731Z,8.40
2023-02-20T22:40:29.924Z,7.30
2023-02-20T22:44:08.842Z,7.60
2023-02-20T22:48:04.162Z,7.90
2023-02-20T22:53:08.230Z,7.80
2023-02-20T22:54:36.619Z,8.10
2023-02-20T22:58:04.030Z,8.70
2023-02-20T23:01:42.197Z,7.60
2023-02-20T23:05:08.043Z,8.30
2023-02-20T23:16:23.591Z,6.90
